ADDS METAR Data INFO
IDs: Format: Raw Decoded Include TAF

Data at: 1330 UTC 15 Aug 2018

KRZL 151315Z AUTO 14005KT 10SM CLR 22/17 A2999 RMK AO2